Time;durP1;ratioP1;P1;durP2;ratioP2;P2;SDS_P1;SDS_P2;PMS_P1;PMS_P2;Temp;Humidity;BMP_temperature;BMP_pressure;BME280_temperature;BME280_humidity;BME280_pressure;Samples;Min_cycle;Max_cycle;Signal;HPM_P1;HPM_P2
2023/12/21 00:00:22;;;;;;;3.50;1.40;;;;;;;6.16;100.00;99319.47;5054502;28;20027;-79
2023/12/21 00:02:48;;;;;;;3.05;1.52;;;;;;;6.22;100.00;99328.88;5053220;28;20028;-80
2023/12/21 00:05:35;;;;;;;4.00;1.30;;;;;;;6.28;100.00;99326.16;5054485;28;20108;-79
2023/12/21 00:08:00;;;;;;;2.00;1.23;;;;;;;6.30;100.00;99331.34;5053613;28;20037;-80
2023/12/21 00:10:31;;;;;;;2.92;1.40;;;;;;;6.32;100.00;99309.75;5053731;28;20029;-80
2023/12/21 00:13:08;;;;;;;3.33;1.83;;;;;;;6.33;100.00;99317.00;5053610;28;20024;-80
2023/12/21 00:15:35;;;;;;;2.33;1.40;;;;;;;6.36;100.00;99318.06;5054331;28;20036;-77
2023/12/21 00:18:01;;;;;;;3.00;1.55;;;;;;;6.41;100.00;99311.72;5054993;28;20474;-79
2023/12/21 00:20:26;;;;;;;2.97;1.52;;;;;;;6.43;100.00;99298.63;5053802;28;20028;-79
2023/12/21 00:23:20;;;;;;;3.08;1.30;;;;;;;6.49;100.00;99307.19;5035418;28;20037;-79
2023/12/21 00:25:47;;;;;;;2.00;1.08;;;;;;;6.50;100.00;99301.03;5052143;28;20031;-79
2023/12/21 00:28:13;;;;;;;2.85;1.55;;;;;;;6.53;100.00;99293.63;5054706;28;20025;-79
2023/12/21 00:30:40;;;;;;;4.97;1.10;;;;;;;6.54;100.00;99293.09;5053090;28;20090;-79
2023/12/21 00:33:05;;;;;;;2.47;1.00;;;;;;;6.54;100.00;99280.97;5054514;28;20025;-78
2023/12/21 00:35:32;;;;;;;1.45;1.02;;;;;;;6.53;100.00;99279.44;5053033;28;20021;-79
2023/12/21 00:38:00;;;;;;;1.38;0.82;;;;;;;6.58;100.00;99281.56;5054430;28;20025;-78
2023/12/21 00:40:26;;;;;;;2.47;1.40;;;;;;;6.57;100.00;99275.13;5036656;28;20041;-80
2023/12/21 00:43:00;;;;;;;1.80;1.30;;;;;;;6.56;100.00;99267.88;5053135;28;20032;-78
2023/12/21 00:45:26;;;;;;;3.35;1.67;;;;;;;6.53;100.00;99265.25;5054856;28;20024;-81
2023/12/21 00:47:53;;;;;;;3.38;1.70;;;;;;;6.54;100.00;99261.88;5055240;28;20028;-80
2023/12/21 00:50:21;;;;;;;3.03;2.05;;;;;;;6.52;100.00;99255.94;5055388;28;20025;-77
2023/12/21 00:52:49;;;;;;;4.97;2.20;;;;;;;6.53;100.00;99245.38;5056700;28;20028;-79
2023/12/21 00:55:19;;;;;;;3.35;1.98;;;;;;;6.47;100.00;99248.13;5056709;28;20458;-81
2023/12/21 00:57:45;;;;;;;4.38;2.20;;;;;;;6.41;100.00;99229.41;5060462;28;20031;-80
2023/12/21 01:00:32;;;;;;;3.30;2.13;;;;;;;6.42;100.00;99240.28;5057038;28;20439;-79
2023/12/21 01:03:14;;;;;;;6.20;2.53;;;;;;;6.38;100.00;99221.91;5052655;28;20051;-80
2023/12/21 01:05:45;;;;;;;;;;;;;;;6.27;100.00;99224.50;5053083;28;20024;-79
2023/12/21 01:08:20;;;;;;;5.78;3.30;;;;;;;6.22;100.00;99217.47;5052675;28;20013;-78
2023/12/21 01:10:45;;;;;;;4.63;2.78;;;;;;;6.17;100.00;99213.28;5053351;28;20025;-78
2023/12/21 01:13:11;;;;;;;5.07;3.25;;;;;;;6.14;100.00;99216.31;5053590;28;20028;-77
2023/12/21 01:15:38;;;;;;;4.65;2.80;;;;;;;6.13;100.00;99212.69;5053673;28;20052;-80
2023/12/21 01:18:04;;;;;;;6.20;2.70;;;;;;;6.11;100.00;99208.78;5053539;28;20051;-79
2023/12/21 01:20:31;;;;;;;4.53;2.20;;;;;;;6.09;100.00;99195.06;5052308;28;20482;-77
2023/12/21 01:22:56;;;;;;;4.55;2.97;;;;;;;6.07;100.00;99202.53;5053205;28;20041;-79
2023/12/21 01:25:23;;;;;;;3.97;2.53;;;;;;;6.04;100.00;99204.25;5052590;28;20059;-79
2023/12/21 01:27:51;;;;;;;5.28;3.40;;;;;;;6.01;100.00;99202.41;5052353;28;20083;-78
2023/12/21 01:30:17;;;;;;;7.75;3.30;;;;;;;5.98;100.00;99189.22;5053516;28;20041;-79
2023/12/21 01:32:51;;;;;;;6.10;3.58;;;;;;;5.98;100.00;99182.78;5052076;28;20115;-79
2023/12/21 01:35:17;;;;;;;6.45;4.18;;;;;;;6.02;100.00;99174.84;5053639;28;20033;-78
2023/12/21 01:37:44;;;;;;;8.30;4.60;;;;;;;6.04;100.00;99172.31;5035431;28;20043;-78
2023/12/21 01:40:11;;;;;;;7.15;3.65;;;;;;;6.04;100.00;99156.06;5035517;28;20112;-78
2023/12/21 01:42:38;;;;;;;8.60;3.78;;;;;;;6.03;100.00;99142.38;5052078;28;20025;-78
2023/12/21 01:45:06;;;;;;;4.65;3.17;;;;;;;6.02;100.00;99138.78;5052064;28;20029;-79
2023/12/21 01:47:32;;;;;;;8.15;3.42;;;;;;;6.05;100.00;99140.63;5051880;28;20078;-80
2023/12/21 01:49:59;;;;;;;5.22;3.75;;;;;;;6.08;100.00;99136.81;5052100;28;20033;-80
2023/12/21 01:52:33;;;;;;;6.28;4.00;;;;;;;6.07;100.00;99125.97;5053251;28;20032;-78
2023/12/21 01:55:00;;;;;;;5.68;4.53;;;;;;;6.10;100.00;99117.25;5052091;28;20037;-79
2023/12/21 01:57:26;;;;;;;4.70;3.85;;;;;;;6.12;100.00;99099.75;5051694;28;20028;-78
2023/12/21 01:59:52;;;;;;;4.65;3.95;;;;;;;6.15;100.00;99095.91;5052071;28;20025;-79
2023/12/21 02:02:19;;;;;;;5.13;3.10;;;;;;;6.17;100.00;99090.53;5052786;28;20040;-79
2023/12/21 02:04:44;;;;;;;3.40;3.10;;;;;;;6.16;100.00;99080.47;5057615;28;20493;-80
2023/12/21 02:07:11;;;;;;;3.92;2.75;;;;;;;6.16;100.00;99086.91;5056025;28;20028;-80
2023/12/21 02:09:36;;;;;;;3.42;2.30;;;;;;;6.20;100.00;99075.34;5056199;28;20118;-79
2023/12/21 02:12:03;;;;;;;3.72;2.60;;;;;;;6.24;100.00;99070.25;5056158;28;20462;-78
2023/12/21 02:14:31;;;;;;;4.20;3.47;;;;;;;6.27;100.00;99057.94;5057368;28;20025;-80
2023/12/21 02:16:59;;;;;;;5.00;2.83;;;;;;;6.29;100.00;99049.69;5057454;28;20020;-79
2023/12/21 02:19:26;;;;;;;3.13;2.10;;;;;;;6.29;100.00;99037.59;5039129;28;20103;-79
2023/12/21 02:21:55;;;;;;;2.38;1.92;;;;;;;6.33;100.00;99026.84;5055432;28;20128;-78
2023/12/21 02:24:22;;;;;;;4.15;1.52;;;;;;;6.35;100.00;99015.78;5038794;28;20540;-78
2023/12/21 02:26:48;;;;;;;2.00;1.25;;;;;;;6.36;100.00;99020.97;5055609;28;20536;-78
2023/12/21 02:29:13;;;;;;;2.25;1.33;;;;;;;6.37;100.00;99013.22;5038872;28;20025;-79
2023/12/21 02:31:39;;;;;;;1.85;1.10;;;;;;;6.41;100.00;98997.56;5055311;28;20049;-78
2023/12/21 02:34:06;;;;;;;2.28;1.40;;;;;;;6.44;100.00;99001.44;5055403;28;20394;-79
2023/12/21 02:36:33;;;;;;;1.65;1.27;;;;;;;6.43;100.00;98988.56;5056850;28;20036;-79
2023/12/21 02:39:00;;;;;;;1.25;1.15;;;;;;;6.46;100.00;98979.03;5055219;28;20116;-79
2023/12/21 02:41:58;;;;;;;1.48;1.10;;;;;;;6.46;100.00;98984.72;5037932;28;20032;-77
2023/12/21 02:44:37;;;;;;;1.58;0.90;;;;;;;6.46;100.00;98971.31;5052750;28;20036;-78
2023/12/21 02:47:08;;;;;;;1.40;0.80;;;;;;;6.49;100.00;98958.94;5053200;28;20056;-81
2023/12/21 02:49:33;;;;;;;1.45;1.00;;;;;;;6.60;100.00;98952.63;5055243;28;20033;-79
2023/12/21 02:51:58;;;;;;;1.00;0.80;;;;;;;6.58;100.00;98944.59;5055462;28;20688;-79
2023/12/21 02:54:26;;;;;;;1.17;0.80;;;;;;;6.60;100.00;98942.06;5054608;28;20029;-79
2023/12/21 02:56:56;;;;;;;1.23;0.77;;;;;;;6.62;100.00;98933.06;5055509;28;20037;-79
2023/12/21 02:59:23;;;;;;;1.00;0.70;;;;;;;6.65;100.00;98926.38;5055840;28;20347;-79
2023/12/21 03:01:50;;;;;;;1.13;0.65;;;;;;;6.66;100.00;98914.53;5057120;28;20031;-77
2023/12/21 03:04:31;;;;;;;0.30;0.30;;;;;;;6.71;100.00;98909.41;5055026;28;20084;-78
2023/12/21 03:07:00;;;;;;;0.63;0.45;;;;;;;6.70;100.00;98905.00;5053892;28;20049;-78
2023/12/21 03:09:25;;;;;;;0.30;0.30;;;;;;;6.73;100.00;98898.34;5053698;28;20136;-79
2023/12/21 03:11:51;;;;;;;0.40;0.40;;;;;;;6.80;100.00;98895.03;5055020;28;20514;-80
2023/12/21 03:14:22;;;;;;;0.30;0.30;;;;;;;6.84;100.00;98890.69;5054728;28;20021;-79
2023/12/21 03:17:06;;;;;;;0.82;0.50;;;;;;;6.83;100.00;98882.69;5053768;28;20531;-85
2023/12/21 03:19:34;;;;;;;0.40;0.40;;;;;;;6.79;100.00;98877.22;5055654;28;20048;-84
2023/12/21 03:22:00;;;;;;;0.85;0.50;;;;;;;6.82;100.00;98855.59;5054546;28;20047;-83
2023/12/21 03:24:26;;;;;;;2.03;0.40;;;;;;;6.78;100.00;98863.53;5054615;28;20075;-82
2023/12/21 03:26:51;;;;;;;0.38;0.38;;;;;;;6.66;100.00;98863.44;5056126;28;20021;-83
2023/12/21 03:29:17;;;;;;;1.00;0.40;;;;;;;6.62;100.00;98856.44;5054615;28;20025;-79
2023/12/21 03:31:43;;;;;;;1.02;0.60;;;;;;;6.68;100.00;98856.47;5054722;28;20025;-80
2023/12/21 03:34:11;;;;;;;0.28;0.28;;;;;;;6.61;100.00;98838.63;5054421;28;20020;-80
2023/12/21 03:36:37;;;;;;;0.35;0.35;;;;;;;6.68;100.00;98838.16;5055787;28;20047;-78
2023/12/21 03:39:02;;;;;;;0.85;0.55;;;;;;;6.71;100.00;98832.75;5037613;28;20029;-77
2023/12/21 03:41:40;;;;;;;2.00;0.55;;;;;;;6.68;100.00;98819.59;5054126;28;20041;-79
2023/12/21 03:44:06;;;;;;;1.25;0.35;;;;;;;6.68;100.00;98813.91;5037417;28;20537;-79
2023/12/21 03:46:33;;;;;;;0.88;0.57;;;;;;;6.65;100.00;98807.16;5037551;28;20422;-79
2023/12/21 03:49:01;;;;;;;3.22;0.50;;;;;;;6.68;100.00;98804.09;5055555;28;20025;-80
2023/12/21 03:51:27;;;;;;;0.30;0.30;;;;;;;6.63;100.00;98790.63;5054209;28;20098;-79
2023/12/21 03:53:52;;;;;;;1.08;0.40;;;;;;;6.53;100.00;98794.19;5054043;28;20025;-78
2023/12/21 03:56:18;;;;;;;0.40;0.32;;;;;;;6.50;100.00;98778.91;5053968;28;20351;-80
2023/12/21 03:58:45;;;;;;;0.38;0.35;;;;;;;6.54;100.00;98785.13;5055416;28;20111;-79
2023/12/21 04:01:11;;;;;;;1.65;0.20;;;;;;;6.50;100.00;98784.59;5055172;28;20025;-79
2023/12/21 04:03:39;;;;;;;0.80;0.30;;;;;;;6.56;100.00;98782.59;5055343;28;20026;-79
2023/12/21 04:06:06;;;;;;;0.63;0.40;;;;;;;6.53;100.00;98775.09;5053671;28;20071;-80
2023/12/21 04:08:35;;;;;;;0.20;0.20;;;;;;;6.56;100.00;98770.47;5054133;28;20041;-79
2023/12/21 04:11:03;;;;;;;0.55;0.47;;;;;;;6.57;100.00;98764.28;5058205;28;20024;-80
2023/12/21 04:13:29;;;;;;;0.73;0.43;;;;;;;6.56;100.00;98765.56;5060904;28;20024;-80
2023/12/21 04:15:55;;;;;;;0.40;0.30;;;;;;;6.62;100.00;98765.63;5058419;28;20147;-80
2023/12/21 04:18:20;;;;;;;0.52;0.40;;;;;;;6.54;100.00;98756.75;5055336;28;20044;-79
2023/12/21 04:20:54;;;;;;;1.05;0.40;;;;;;;6.51;100.00;98752.09;5054325;28;20033;-80
2023/12/21 04:23:19;;;;;;;0.40;0.38;;;;;;;6.52;100.00;98752.88;5054821;28;20029;-79
2023/12/21 04:25:44;;;;;;;0.30;0.30;;;;;;;6.56;100.00;98756.28;5053085;28;20517;-79
2023/12/21 04:28:13;;;;;;;0.43;0.40;;;;;;;6.61;100.00;98747.81;5054562;28;20021;-81
2023/12/21 04:30:40;;;;;;;1.85;0.40;;;;;;;6.69;100.00;98745.28;5053566;28;20501;-82
2023/12/21 04:33:07;;;;;;;0.40;0.20;;;;;;;6.68;100.00;98730.28;5054606;28;20104;-80
2023/12/21 04:35:37;;;;;;;0.25;0.25;;;;;;;6.76;100.00;98738.34;5036472;28;20036;-77
2023/12/21 04:38:03;;;;;;;0.20;0.20;;;;;;;6.67;100.00;98742.19;5054292;28;20078;-79
2023/12/21 04:40:31;;;;;;;0.90;0.30;;;;;;;6.65;100.00;98742.66;5053019;28;20043;-78
2023/12/21 04:42:58;;;;;;;0.40;0.40;;;;;;;6.63;100.00;98733.88;5054528;28;20057;-79
2023/12/21 04:45:23;;;;;;;0.40;0.40;;;;;;;6.63;100.00;98725.34;5053211;28;20029;-80
2023/12/21 04:47:50;;;;;;;0.32;0.32;;;;;;;6.57;100.00;98724.56;5036466;28;20389;-79
2023/12/21 04:50:15;;;;;;;0.43;0.40;;;;;;;6.56;100.00;98728.69;5054280;28;20032;-78
2023/12/21 04:52:42;;;;;;;0.30;0.28;;;;;;;6.58;100.00;98725.34;5052029;28;20025;-79
2023/12/21 04:55:08;;;;;;;0.30;0.30;;;;;;;6.56;100.00;98708.81;5054402;28;20032;-80
2023/12/21 04:57:36;;;;;;;0.20;0.20;;;;;;;6.58;100.00;98706.22;5052881;28;20053;-80
2023/12/21 05:00:05;;;;;;;0.20;0.20;;;;;;;6.62;100.00;98697.50;5052739;28;20466;-81
2023/12/21 05:02:31;;;;;;;0.65;0.40;;;;;;;6.64;100.00;98706.28;5052815;28;20029;-79
2023/12/21 05:04:57;;;;;;;0.98;0.35;;;;;;;6.55;100.00;98695.13;5052594;28;20487;-80
2023/12/21 05:07:23;;;;;;;1.05;0.20;;;;;;;6.57;100.00;98696.19;5052677;28;20029;-78
2023/12/21 05:09:49;;;;;;;0.60;0.50;;;;;;;6.60;100.00;98697.22;5054104;28;20032;-79
2023/12/21 05:12:16;;;;;;;0.47;0.38;;;;;;;6.61;100.00;98705.22;5053956;28;20029;-78
2023/12/21 05:14:43;;;;;;;0.75;0.40;;;;;;;6.64;100.00;98709.88;5053893;28;20029;-80
2023/12/21 05:17:09;;;;;;;1.15;0.38;;;;;;;6.69;100.00;98705.53;5053782;28;20043;-79
2023/12/21 05:19:44;;;;;;;1.40;0.85;;;;;;;6.70;100.00;98706.31;5052758;28;20486;-80
2023/12/21 05:22:10;;;;;;;1.35;0.52;;;;;;;6.77;100.00;98694.50;5052152;28;20049;-80
2023/12/21 05:24:40;;;;;;;0.93;0.35;;;;;;;6.76;100.00;98699.41;5035906;28;20044;-79
2023/12/21 05:27:06;;;;;;;1.17;0.30;;;;;;;6.81;100.00;98697.88;5053873;28;20091;-80
2023/12/21 05:29:31;;;;;;;0.60;0.35;;;;;;;6.84;100.00;98703.31;5052186;28;20428;-80
2023/12/21 05:32:03;;;;;;;0.88;0.30;;;;;;;6.86;100.00;98692.25;5052100;28;20497;-77
2023/12/21 05:34:29;;;;;;;;;;;;;;;6.87;100.00;98693.81;5054216;28;20381;-80
2023/12/21 05:36:59;;;;;;;0.43;0.43;;;;;;;6.83;100.00;98689.66;5051399;28;20346;-79
2023/12/21 05:39:29;;;;;;;0.90;0.30;;;;;;;6.91;100.00;98694.34;5053726;28;20032;-79
2023/12/21 05:41:57;;;;;;;0.40;0.40;;;;;;;7.00;100.00;98701.88;5053483;28;20024;-78
2023/12/21 05:44:24;;;;;;;0.43;0.30;;;;;;;6.95;100.00;98696.94;5053466;28;20489;-79
2023/12/21 05:46:50;;;;;;;1.85;0.40;;;;;;;6.90;100.00;98677.81;5052173;28;20132;-79
2023/12/21 05:49:15;;;;;;;3.42;0.82;;;;;;;6.92;100.00;98681.69;5053624;28;20029;-80
2023/12/21 05:51:43;;;;;;;0.60;0.60;;;;;;;6.85;100.00;98675.69;5054317;28;20359;-85
2023/12/21 05:54:09;;;;;;;0.50;0.50;;;;;;;6.85;100.00;98670.03;5055400;28;20071;-83
2023/12/21 05:56:36;;;;;;;1.23;0.70;;;;;;;6.85;100.00;98665.13;5054277;28;20033;-82
2023/12/21 05:59:02;;;;;;;0.65;0.65;;;;;;;6.89;100.00;98665.66;5052412;28;20090;-79
2023/12/21 06:01:30;;;;;;;0.50;0.30;;;;;;;6.83;100.00;98666.94;5035994;28;20481;-83
2023/12/21 06:03:57;;;;;;;0.90;0.77;;;;;;;6.91;100.00;98665.94;5053507;28;20037;-82
2023/12/21 06:06:23;;;;;;;0.60;0.60;;;;;;;6.83;100.00;98662.00;5054001;28;20032;-84
2023/12/21 06:08:50;;;;;;;0.85;0.65;;;;;;;6.92;100.00;98663.88;5053937;28;20025;-82
2023/12/21 06:11:17;;;;;;;1.13;0.40;;;;;;;6.86;100.00;98660.22;5052090;28;20048;-78
2023/12/21 06:13:44;;;;;;;1.15;0.52;;;;;;;6.80;100.00;98656.56;5052954;28;20531;-79
2023/12/21 06:16:12;;;;;;;0.80;0.57;;;;;;;6.86;100.00;98660.22;5054307;28;20025;-85
2023/12/21 06:18:39;;;;;;;2.45;0.70;;;;;;;6.73;100.00;98652.16;5054232;28;20047;-86
2023/12/21 06:21:06;;;;;;;0.55;0.55;;;;;;;6.62;100.00;98652.09;5035030;28;20394;-85
2023/12/21 06:23:48;;;;;;;1.40;1.30;;;;;;;6.63;100.00;98654.41;5052984;28;20029;-83
2023/12/21 06:26:14;;;;;;;0.80;0.73;;;;;;;6.57;100.00;98645.09;5051456;28;20063;-85
2023/12/21 06:28:58;;;;;;;0.85;0.60;;;;;;;6.73;100.00;98651.41;5049936;28;20029;-85
2023/12/21 06:31:49;;;;;;;0.82;0.55;;;;;;;6.76;100.00;98644.69;5051814;28;20029;-85
2023/12/21 06:34:15;;;;;;;0.55;0.55;;;;;;;6.69;100.00;98645.94;5051866;28;20122;-83
2023/12/21 06:36:41;;;;;;;1.40;0.70;;;;;;;6.75;100.00;98645.97;5051826;28;20037;-84
2023/12/21 06:39:07;;;;;;;0.90;0.70;;;;;;;6.76;100.00;98634.13;5052172;28;20037;-87
2023/12/21 06:41:32;;;;;;;1.50;0.70;;;;;;;6.90;100.00;98641.66;5051898;28;20036;-86
2023/12/21 06:43:59;;;;;;;1.17;0.50;;;;;;;6.98;100.00;98644.78;5051817;28;20044;-82
2023/12/21 06:46:25;;;;;;;0.90;0.70;;;;;;;7.00;100.00;98639.38;5034989;28;20462;-83
2023/12/21 06:48:51;;;;;;;1.05;0.65;;;;;;;7.05;100.00;98621.59;5053755;28;20060;-86
2023/12/21 06:51:18;;;;;;;0.93;0.77;;;;;;;6.99;100.00;98617.97;5056395;28;20064;-89
2023/12/21 06:53:44;;;;;;;1.00;0.70;;;;;;;7.04;100.00;98626.50;5056982;28;20029;-79
2023/12/21 06:56:11;;;;;;;2.00;0.65;;;;;;;7.13;100.00;98624.75;5056459;28;20417;-88
2023/12/21 06:58:38;;;;;;;1.40;0.50;;;;;;;7.11;100.00;98625.25;5057045;28;20494;-82
2023/12/21 07:01:05;;;;;;;1.27;0.93;;;;;;;7.18;100.00;98627.59;5056609;28;20128;-84
2023/12/21 07:03:30;;;;;;;0.90;0.70;;;;;;;7.18;100.00;98632.47;5054952;28;20478;-83
2023/12/21 07:05:56;;;;;;;0.70;0.70;;;;;;;7.08;100.00;98627.03;5055141;28;20044;-83
2023/12/21 07:08:24;;;;;;;0.50;0.50;;;;;;;7.19;100.00;98628.34;5056534;28;20033;-84
2023/12/21 07:10:50;;;;;;;1.40;0.65;;;;;;;7.20;100.00;98627.06;5056367;28;20059;-83
2023/12/21 07:13:22;;;;;;;0.85;0.70;;;;;;;7.19;100.00;98628.34;5059457;28;20049;-83
2023/12/21 07:15:54;;;;;;;;;;;;;;;7.16;100.00;98620.88;5060632;28;20112;-83
2023/12/21 07:18:21;;;;;;;0.57;0.57;;;;;;;7.27;100.00;98626.59;5060672;28;19913;-82
2023/12/21 07:20:46;;;;;;;1.33;0.90;;;;;;;7.30;100.00;98614.19;5062782;28;20044;-84
2023/12/21 07:23:12;;;;;;;0.70;0.70;;;;;;;7.43;100.00;98615.25;5074922;28;20044;-83
2023/12/21 07:25:44;;;;;;;2.00;0.60;;;;;;;7.52;100.00;98614.28;5076493;28;20009;-84
2023/12/21 07:28:18;;;;;;;0.82;0.77;;;;;;;7.64;100.00;98609.38;5068302;28;20029;-83
2023/12/21 07:30:53;;;;;;;1.15;0.63;;;;;;;7.70;100.00;98608.09;5054585;28;20433;-84
2023/12/21 07:33:21;;;;;;;0.60;0.60;;;;;;;7.78;100.00;98608.34;5055570;28;20048;-83
2023/12/21 07:35:46;;;;;;;0.57;0.57;;;;;;;7.81;100.00;98598.81;5053949;28;20036;-84
2023/12/21 07:38:12;;;;;;;1.23;0.60;;;;;;;7.80;100.00;98602.94;5056928;28;20474;-84
2023/12/21 07:40:47;;;;;;;1.50;0.82;;;;;;;7.94;100.00;98590.53;5056628;28;20040;-83
2023/12/21 07:43:13;;;;;;;1.17;0.47;;;;;;;7.96;100.00;98587.97;5054313;28;20118;-85
2023/12/21 07:45:39;;;;;;;0.60;0.60;;;;;;;8.02;100.00;98577.34;5057600;28;20095;-83
2023/12/21 07:48:07;;;;;;;1.02;0.60;;;;;;;8.08;100.00;98572.41;5059564;28;20099;-83
2023/12/21 07:50:33;;;;;;;0.80;0.57;;;;;;;8.08;100.00;98565.97;5059578;28;20129;-83
2023/12/21 07:52:59;;;;;;;1.50;0.75;;;;;;;8.07;100.00;98562.34;5058315;28;20393;-84
2023/12/21 07:55:25;;;;;;;1.60;0.80;;;;;;;8.22;100.00;98551.47;5054266;28;20057;-84
2023/12/21 07:57:50;;;;;;;2.10;0.88;;;;;;;8.23;100.00;98550.19;5037634;28;20067;-84
2023/12/21 08:00:17;;;;;;;2.97;1.10;;;;;;;8.29;100.00;98544.50;5053348;28;20041;-84
2023/12/21 08:02:48;;;;;;;2.63;0.80;;;;;;;8.34;100.00;98526.63;5055291;28;20031;-84
2023/12/21 08:05:14;;;;;;;2.03;1.27;;;;;;;8.41;100.00;98531.03;5054526;28;20033;-84
2023/12/21 08:07:41;;;;;;;1.92;0.80;;;;;;;8.42;100.00;98518.31;5053765;28;20031;-85
2023/12/21 08:10:08;;;;;;;1.63;0.70;;;;;;;8.40;100.00;98521.72;5055233;28;20036;-84
2023/12/21 08:12:42;;;;;;;2.25;0.70;;;;;;;8.40;100.00;98527.41;5037009;28;20453;-86
2023/12/21 08:15:17;;;;;;;1.02;0.52;;;;;;;8.44;100.00;98515.75;5055161;28;20044;-85
2023/12/21 08:17:44;;;;;;;1.88;0.80;;;;;;;8.45;100.00;98512.38;5055236;28;20028;-83
2023/12/21 08:20:15;;;;;;;1.10;0.60;;;;;;;8.39;100.00;98509.56;5053670;28;20068;-85
2023/12/21 08:22:44;;;;;;;1.08;0.70;;;;;;;8.43;100.00;98509.28;5053591;28;20041;-83
2023/12/21 08:25:11;;;;;;;1.20;0.63;;;;;;;8.50;100.00;98508.75;5053620;28;20044;-84
2023/12/21 08:27:36;;;;;;;0.73;0.52;;;;;;;8.54;100.00;98492.16;5053494;28;20382;-84
2023/12/21 08:30:03;;;;;;;1.55;0.95;;;;;;;8.51;100.00;98504.56;5053841;28;20033;-85
2023/12/21 08:32:29;;;;;;;1.13;0.55;;;;;;;8.52;100.00;98499.66;5055186;28;20044;-84
2023/12/21 08:34:56;;;;;;;0.52;0.40;;;;;;;8.60;100.00;98497.84;5037687;28;20386;-84
2023/12/21 08:37:22;;;;;;;1.30;0.60;;;;;;;8.49;100.00;98483.66;5055452;28;20484;-84
2023/12/21 08:39:49;;;;;;;0.70;0.43;;;;;;;8.54;100.00;98485.69;5056049;28;20025;-85
2023/12/21 08:42:17;;;;;;;0.70;0.50;;;;;;;8.56;100.00;98468.88;5056172;28;20030;-83
2023/12/21 08:44:43;;;;;;;0.80;0.50;;;;;;;8.62;100.00;98470.38;5054732;28;20074;-84
2023/12/21 08:47:10;;;;;;;1.63;0.43;;;;;;;8.62;100.00;98459.00;5056852;28;20417;-84
2023/12/21 08:49:38;;;;;;;0.43;0.40;;;;;;;8.63;100.00;98454.06;5056496;28;20021;-83
2023/12/21 08:52:04;;;;;;;1.88;0.73;;;;;;;8.59;100.00;98440.13;5055826;28;20059;-84
2023/12/21 08:54:30;;;;;;;0.80;0.68;;;;;;;8.59;100.00;98427.97;5053210;28;20447;-84
2023/12/21 08:56:57;;;;;;;1.23;0.80;;;;;;;8.64;100.00;98430.00;5054261;28;20435;-83
2023/12/21 08:59:26;;;;;;;1.08;0.60;;;;;;;8.69;100.00;98429.19;5054347;28;20033;-84
2023/12/21 09:01:53;;;;;;;2.72;0.68;;;;;;;8.60;100.00;98430.28;5054425;28;20037;-84
2023/12/21 09:04:20;;;;;;;0.85;0.50;;;;;;;8.68;100.00;98419.09;5054810;28;20382;-85
2023/12/21 09:06:46;;;;;;;0.77;0.50;;;;;;;8.82;100.00;98417.97;5055084;28;20347;-85
2023/12/21 09:09:13;;;;;;;1.40;0.60;;;;;;;8.83;100.00;98411.00;5054208;28;20037;-84
2023/12/21 09:11:44;;;;;;;2.53;0.55;;;;;;;8.82;100.00;98389.50;5036069;28;20024;-83
2023/12/21 09:14:11;;;;;;;1.02;0.50;;;;;;;8.81;100.00;98380.19;5052644;28;20032;-85
2023/12/21 09:16:37;;;;;;;0.95;0.70;;;;;;;8.82;100.00;98375.25;5053942;28;20036;-84
2023/12/21 09:19:03;;;;;;;0.82;0.57;;;;;;;8.83;100.00;98366.19;5053995;28;20016;-85
2023/12/21 09:21:29;;;;;;;1.45;0.43;;;;;;;8.84;100.00;98366.97;5053550;28;20045;-84
2023/12/21 09:23:55;;;;;;;1.23;0.60;;;;;;;8.92;100.00;98365.09;5053140;28;20025;-84
2023/12/21 09:26:21;;;;;;;1.15;0.70;;;;;;;8.98;100.00;98370.75;5054190;28;20029;-83
2023/12/21 09:28:49;;;;;;;1.20;0.70;;;;;;;9.06;100.00;98360.31;5054747;28;20024;-83
2023/12/21 09:31:15;;;;;;;1.48;0.68;;;;;;;9.04;100.00;98349.47;5054471;28;20079;-83
2023/12/21 09:33:40;;;;;;;0.85;0.50;;;;;;;8.99;100.00;98335.28;5054315;28;20028;-83
2023/12/21 09:36:09;;;;;;;1.27;0.60;;;;;;;9.04;100.00;98334.47;5055400;28;20111;-83
2023/12/21 09:38:34;;;;;;;1.60;0.93;;;;;;;8.97;100.00;98323.63;5058348;28;20078;-83
2023/12/21 09:41:01;;;;;;;1.05;0.60;;;;;;;8.97;100.00;98332.19;5047494;28;20464;-84
2023/12/21 09:43:35;;;;;;;4.15;0.70;;;;;;;8.95;100.00;98318.47;5064999;28;20025;-82
2023/12/21 09:46:02;;;;;;;1.10;0.60;;;;;;;8.85;100.00;98305.09;5063522;28;20442;-84
2023/12/21 09:48:37;;;;;;;1.02;0.70;;;;;;;8.87;100.00;98306.09;5064037;28;20132;-83
2023/12/21 09:51:05;;;;;;;3.83;0.85;;;;;;;8.81;100.00;98294.75;5063595;28;20153;-84
2023/12/21 09:53:31;;;;;;;1.02;0.57;;;;;;;8.61;100.00;98275.25;5055859;28;20304;-83
2023/12/21 09:55:57;;;;;;;1.92;0.70;;;;;;;8.60;100.00;98278.63;5053879;28;20462;-83
2023/12/21 09:58:23;;;;;;;1.63;0.60;;;;;;;8.65;100.00;98258.66;5055845;28;20025;-84
2023/12/21 10:00:48;;;;;;;1.33;0.50;;;;;;;8.67;100.00;98250.34;5053158;28;20028;-84
2023/12/21 10:03:14;;;;;;;1.20;0.63;;;;;;;8.69;100.00;98242.06;5052406;28;20033;-83
2023/12/21 10:05:40;;;;;;;0.60;0.52;;;;;;;8.66;100.00;98228.88;5035616;28;20033;-84
2023/12/21 10:08:06;;;;;;;1.25;0.55;;;;;;;8.64;100.00;98233.56;5035397;28;20039;-83
2023/12/21 10:10:33;;;;;;;1.25;0.60;;;;;;;8.62;100.00;98211.31;5053463;28;20029;-84
2023/12/21 10:13:00;;;;;;;1.52;0.68;;;;;;;8.72;100.00;98209.66;5035094;28;20033;-85
2023/12/21 10:15:30;;;;;;;1.15;0.73;;;;;;;8.71;100.00;98210.97;5051543;28;20099;-83
2023/12/21 10:17:56;;;;;;;0.75;0.70;;;;;;;8.72;100.00;98206.03;5053237;28;20132;-84
2023/12/21 10:20:23;;;;;;;0.70;0.60;;;;;;;8.66;100.00;98188.22;5053337;28;20031;-84
2023/12/21 10:22:49;;;;;;;2.85;1.00;;;;;;;8.68;100.00;98182.78;5053101;28;20067;-84
2023/12/21 10:25:15;;;;;;;1.48;1.10;;;;;;;8.66;100.00;98174.00;5057177;28;20033;-84
2023/12/21 10:27:51;;;;;;;1.42;0.73;;;;;;;8.61;100.00;98158.53;5039576;28;20024;-84
2023/12/21 10:30:19;;;;;;;2.15;0.85;;;;;;;8.63;100.00;98152.31;5067625;28;20028;-84
2023/12/21 10:32:48;;;;;;;1.58;0.95;;;;;;;8.60;100.00;98147.69;5070587;28;20024;-83
2023/12/21 10:35:13;;;;;;;2.60;0.90;;;;;;;8.59;100.00;98138.38;5071962;28;20090;-83
2023/12/21 10:37:39;;;;;;;2.10;0.82;;;;;;;8.57;100.00;98120.25;5071330;28;20049;-83
2023/12/21 10:40:07;;;;;;;2.83;1.02;;;;;;;8.55;100.00;98112.28;5067249;28;20108;-83
2023/12/21 10:42:32;;;;;;;1.35;0.90;;;;;;;8.54;100.00;98105.03;5064863;28;20074;-84
2023/12/21 10:44:59;;;;;;;1.35;0.98;;;;;;;8.50;100.00;98106.63;5063275;28;20089;-83
2023/12/21 10:47:25;;;;;;;1.30;0.85;;;;;;;8.49;100.00;98102.25;5047749;28;20067;-86
2023/12/21 10:49:51;;;;;;;1.13;0.77;;;;;;;8.41;100.00;98073.59;5062031;28;20462;-83
2023/12/21 10:52:18;;;;;;;1.88;1.15;;;;;;;8.49;100.00;98068.09;5062371;28;20078;-84
2023/12/21 10:54:46;;;;;;;0.85;0.70;;;;;;;8.46;100.00;98063.47;5024222;28;20124;-83
2023/12/21 10:57:12;;;;;;;1.35;0.70;;;;;;;8.50;100.00;98055.41;5040758;28;20385;-83
2023/12/21 10:59:48;;;;;;;2.38;0.60;;;;;;;8.58;100.00;98037.19;5056344;28;20028;-84
2023/12/21 11:02:15;;;;;;;0.98;0.70;;;;;;;8.55;100.00;98023.25;5040404;28;20052;-84
2023/12/21 11:04:43;;;;;;;0.73;0.73;;;;;;;8.52;100.00;98016.56;5023225;28;20029;-84
2023/12/21 11:07:11;;;;;;;0.95;0.50;;;;;;;8.62;100.00;98019.81;5057290;28;20190;-84
2023/12/21 11:09:45;;;;;;;1.05;0.60;;;;;;;8.67;100.00;97999.03;5056716;28;20025;-85
2023/12/21 11:12:13;;;;;;;1.00;0.90;;;;;;;8.71;100.00;97994.59;5055400;28;20031;-85
2023/12/21 11:14:47;;;;;;;1.08;0.70;;;;;;;8.88;100.00;97985.84;5056645;28;20021;-85
2023/12/21 11:17:21;;;;;;;3.10;0.90;;;;;;;8.92;100.00;97985.50;5055415;28;20474;-84
2023/12/21 11:19:48;;;;;;;1.20;0.88;;;;;;;8.96;100.00;97968.88;5056309;28;20028;-84
2023/12/21 11:22:23;;;;;;;2.05;1.13;;;;;;;8.95;100.00;97956.75;5044623;28;20049;-84
2023/12/21 11:24:49;;;;;;;1.63;0.70;;;;;;;9.01;100.00;97960.25;5046139;28;20029;-85
2023/12/21 11:27:16;;;;;;;1.25;0.80;;;;;;;8.99;100.00;97951.50;5041261;28;20048;-85
2023/12/21 11:29:41;;;;;;;0.93;0.70;;;;;;;8.98;100.00;97949.97;5055458;28;20083;-84
2023/12/21 11:32:08;;;;;;;1.50;1.00;;;;;;;8.97;100.00;97934.19;5057218;28;20044;-84
2023/12/21 11:34:37;;;;;;;1.95;1.00;;;;;;;9.00;100.00;97938.78;5055727;28;20200;-85
2023/12/21 11:37:20;;;;;;;1.38;0.93;;;;;;;8.98;100.00;97923.56;5056548;28;20036;-83